createdAt,value
2023-02-14T00:01:24.033Z,101153.41
2023-02-14T00:03:51.728Z,101166.41
2023-02-14T00:06:19.842Z,101165.34
2023-02-14T00:08:47.719Z,101162.38
2023-02-14T00:11:15.283Z,101152.31
2023-02-14T00:14:05.834Z,101157.34
2023-02-14T00:16:33.538Z,101141.78
2023-02-14T00:19:04.076Z,101138.00
2023-02-14T00:21:36.162Z,101135.91
2023-02-14T00:24:23.880Z,101139.38
2023-02-14T00:26:51.906Z,101132.56
2023-02-14T00:29:22.016Z,101118.69
2023-02-14T00:31:51.495Z,101108.13
2023-02-14T00:34:21.272Z,101115.22
2023-02-14T00:36:50.015Z,101111.13
2023-02-14T00:39:18.329Z,101107.16
2023-02-14T00:41:46.594Z,101096.75
2023-02-14T00:44:15.862Z,101089.56
2023-02-14T00:46:44.431Z,101076.63
2023-02-14T00:49:13.493Z,101086.94
2023-02-14T00:51:44.983Z,101075.97
2023-02-14T00:54:13.473Z,101085.09
2023-02-14T00:56:41.099Z,101070.75
2023-02-14T00:59:09.993Z,101055.53
2023-02-14T01:01:38.576Z,101068.25
2023-02-14T01:04:06.395Z,101046.97
2023-02-14T01:06:36.610Z,101050.72
2023-02-14T01:09:04.475Z,101044.66
2023-02-14T01:11:33.568Z,101042.09
2023-02-14T01:14:01.365Z,101039.72
2023-02-14T01:16:29.320Z,101027.66
2023-02-14T01:18:58.288Z,101026.72
2023-02-14T01:21:28.061Z,101035.78
2023-02-14T01:23:59.408Z,101031.34
2023-02-14T01:26:27.497Z,101019.47
2023-02-14T01:28:55.775Z,101023.28
2023-02-14T01:31:28.754Z,101015.94
2023-02-14T01:33:57.674Z,101012.97
2023-02-14T01:36:36.245Z,101013.56
2023-02-14T01:39:09.167Z,101001.44
2023-02-14T01:41:37.592Z,100996.91
2023-02-14T01:44:06.584Z,100986.56
2023-02-14T01:46:35.999Z,100992.63
2023-02-14T01:49:09.544Z,100991.50
2023-02-14T01:51:38.944Z,100986.63
2023-02-14T01:54:07.230Z,100983.34
2023-02-14T01:56:41.398Z,100981.09
2023-02-14T01:59:10.865Z,100964.47
2023-02-14T02:01:38.617Z,100972.97
2023-02-14T02:04:10.932Z,100972.06
2023-02-14T02:06:41.654Z,100973.63
2023-02-14T02:09:34.269Z,100961.22
2023-02-14T02:12:02.304Z,100961.31
2023-02-14T02:14:31.172Z,100949.81
2023-02-14T02:17:04.869Z,100950.44
2023-02-14T02:19:35.351Z,100944.44
2023-02-14T02:22:29.562Z,100932.91
2023-02-14T02:25:39.461Z,100934.22
2023-02-14T02:28:48.813Z,100925.63
2023-02-14T02:31:41.139Z,100936.69
2023-02-14T02:34:10.675Z,100925.31
2023-02-14T02:37:00.621Z,100920.50
2023-02-14T02:39:41.984Z,100923.41
2023-02-14T02:42:24.570Z,100917.81
2023-02-14T02:45:02.351Z,100912.72
2023-02-14T02:47:42.096Z,100891.16
2023-02-14T02:50:39.560Z,100894.75
2023-02-14T02:53:44.851Z,100898.03
2023-02-14T02:56:43.707Z,100895.34
2023-02-14T02:59:20.882Z,100880.91
2023-02-14T03:02:07.314Z,100877.41
2023-02-14T03:04:54.730Z,100862.56
2023-02-14T03:07:41.129Z,100862.97
2023-02-14T03:10:19.826Z,100862.34
2023-02-14T03:12:55.761Z,100852.19
2023-02-14T03:15:32.357Z,100848.94
2023-02-14T03:18:19.095Z,100834.47
2023-02-14T03:20:49.187Z,100840.47
2023-02-14T03:23:36.148Z,100834.97
2023-02-14T03:26:19.616Z,100833.75
2023-02-14T03:28:53.371Z,100838.16
2023-02-14T03:31:38.486Z,100819.47
2023-02-14T03:34:13.881Z,100811.56
2023-02-14T03:36:49.922Z,100805.66
2023-02-14T03:39:31.459Z,100793.75
2023-02-14T03:42:06.419Z,100796.56
2023-02-14T03:44:35.181Z,100788.69
2023-02-14T03:47:12.022Z,100783.97
2023-02-14T03:49:41.812Z,100778.06
2023-02-14T03:52:09.917Z,100782.16
2023-02-14T03:54:38.072Z,100772.53
2023-02-14T03:57:22.171Z,100758.25
2023-02-14T03:59:49.794Z,100755.13
2023-02-14T04:02:25.441Z,100750.66
2023-02-14T04:04:53.508Z,100742.72
2023-02-14T04:07:22.426Z,100755.19
2023-02-14T04:09:50.335Z,100751.09
2023-02-14T04:12:26.553Z,100751.19
2023-02-14T04:14:57.179Z,100754.63
2023-02-14T04:17:45.556Z,100740.09
2023-02-14T04:20:13.358Z,100744.19
2023-02-14T04:22:40.934Z,100746.97
2023-02-14T04:25:08.596Z,100754.50
2023-02-14T04:27:36.226Z,100755.34
2023-02-14T04:30:04.043Z,100770.41
2023-02-14T04:32:31.768Z,100763.94
2023-02-14T04:34:59.740Z,100764.53
2023-02-14T04:37:27.430Z,100767.50
2023-02-14T04:39:55.356Z,100761.66
2023-02-14T04:42:23.041Z,100762.53
2023-02-14T04:44:50.705Z,100762.78
2023-02-14T04:47:18.766Z,100755.47
2023-02-14T04:49:46.974Z,100773.00
2023-02-14T04:52:15.037Z,100765.53
2023-02-14T04:54:44.022Z,100766.56
2023-02-14T04:57:12.117Z,100760.59
2023-02-14T04:59:40.598Z,100763.78
2023-02-14T05:02:08.802Z,100765.22
2023-02-14T05:04:36.664Z,100768.81
2023-02-14T05:07:04.923Z,100774.03
2023-02-14T05:09:34.828Z,100776.63
2023-02-14T05:12:02.451Z,100764.25
2023-02-14T05:14:30.511Z,100772.94
2023-02-14T05:17:00.487Z,100762.44
2023-02-14T05:19:28.698Z,100766.38
2023-02-14T05:21:56.388Z,100758.97
2023-02-14T05:24:24.796Z,100771.72
2023-02-14T05:26:56.491Z,100766.28
2023-02-14T05:29:27.796Z,100756.56
2023-02-14T05:31:56.148Z,100766.94
2023-02-14T05:34:23.909Z,100759.41
2023-02-14T05:36:51.647Z,100757.59
2023-02-14T05:39:19.957Z,100764.31
2023-02-14T05:41:47.824Z,100756.84
2023-02-14T05:44:16.183Z,100760.75
2023-02-14T05:46:44.691Z,100763.53
2023-02-14T05:49:12.618Z,100766.47
2023-02-14T05:51:43.166Z,100749.63
2023-02-14T05:54:11.248Z,100756.03
2023-02-14T05:56:39.746Z,100759.09
2023-02-14T05:59:08.435Z,100755.22
2023-02-14T06:01:36.464Z,100751.94
2023-02-14T06:04:04.332Z,100748.50
2023-02-14T06:06:36.766Z,100749.69
2023-02-14T06:09:07.872Z,100740.94
2023-02-14T06:11:35.803Z,100757.03
2023-02-14T06:14:03.861Z,100748.25
2023-02-14T06:16:32.189Z,100756.31
2023-02-14T06:19:01.047Z,100755.91
2023-02-14T06:21:29.080Z,100747.59
2023-02-14T06:23:56.933Z,100756.88
2023-02-14T06:26:28.369Z,100746.59
2023-02-14T06:28:56.853Z,100744.81
2023-02-14T06:31:33.415Z,100747.88
2023-02-14T06:34:01.442Z,100747.41
2023-02-14T06:36:29.314Z,100753.56
2023-02-14T06:38:57.221Z,100743.22
2023-02-14T06:41:24.983Z,100735.72
2023-02-14T06:43:54.608Z,100736.88
2023-02-14T06:46:25.848Z,100730.66
2023-02-14T06:48:53.981Z,100743.03
2023-02-14T06:51:24.638Z,100742.50
2023-02-14T06:53:55.762Z,100744.00
2023-02-14T06:56:23.730Z,100744.22
2023-02-14T06:58:51.691Z,100745.63
2023-02-14T07:01:20.075Z,100741.00
2023-02-14T07:03:47.959Z,100744.56
2023-02-14T07:06:15.952Z,100733.94
2023-02-14T07:08:44.298Z,100738.88
2023-02-14T07:11:12.467Z,100730.69
2023-02-14T07:13:40.492Z,100728.69
2023-02-14T07:16:08.432Z,100727.47
2023-02-14T07:18:36.525Z,100746.00
2023-02-14T07:21:04.531Z,100737.28
2023-02-14T07:23:33.288Z,100747.94
2023-02-14T07:26:01.174Z,100732.06
2023-02-14T07:28:30.635Z,100736.94
2023-02-14T07:31:02.228Z,100717.44
2023-02-14T07:33:31.637Z,100733.91
2023-02-14T07:36:05.842Z,100735.06
2023-02-14T07:38:33.999Z,100726.38
2023-02-14T07:41:02.573Z,100734.34
2023-02-14T07:43:30.590Z,100732.94
2023-02-14T07:45:58.244Z,100729.22
2023-02-14T07:48:26.185Z,100727.06
2023-02-14T07:50:56.780Z,100711.88
2023-02-14T07:53:24.834Z,100727.84
2023-02-14T07:55:54.919Z,100724.94
2023-02-14T07:58:22.890Z,100727.13
2023-02-14T08:00:51.428Z,100732.06
2023-02-14T08:03:25.057Z,100720.28
2023-02-14T08:06:01.778Z,100721.38
2023-02-14T08:08:31.052Z,100721.50
2023-02-14T08:11:02.938Z,100724.72
2023-02-14T08:13:30.991Z,100734.72
2023-02-14T08:16:24.297Z,100730.13
2023-02-14T08:18:52.265Z,100734.97
2023-02-14T08:21:19.986Z,100738.72
2023-02-14T08:23:47.737Z,100734.03
2023-02-14T08:26:18.103Z,100740.38
2023-02-14T08:28:46.617Z,100742.56
2023-02-14T08:31:34.412Z,100725.69
2023-02-14T08:34:02.709Z,100738.50
2023-02-14T08:36:30.805Z,100739.16
2023-02-14T08:38:58.565Z,100738.38
2023-02-14T08:41:26.736Z,100738.81
2023-02-14T08:43:54.489Z,100744.66
2023-02-14T08:46:22.344Z,100736.47
2023-02-14T08:48:50.436Z,100743.59
2023-02-14T08:51:18.233Z,100744.19
2023-02-14T08:53:46.559Z,100739.22
2023-02-14T08:56:15.028Z,100740.47
2023-02-14T08:58:43.135Z,100744.91
2023-02-14T09:01:13.186Z,100742.19
2023-02-14T09:03:41.128Z,100743.75
2023-02-14T09:06:12.873Z,100748.72
2023-02-14T09:08:41.478Z,100750.38
2023-02-14T09:11:20.045Z,100750.94
2023-02-14T09:13:50.967Z,100753.72
2023-02-14T09:16:20.983Z,100752.91
2023-02-14T09:18:49.283Z,100757.94
2023-02-14T09:21:19.506Z,100772.25
2023-02-14T09:24:07.300Z,100770.16
2023-02-14T09:26:41.020Z,100765.94
2023-02-14T09:29:10.136Z,100771.59
2023-02-14T09:31:38.112Z,100771.63
2023-02-14T09:34:24.898Z,100773.00
2023-02-14T09:37:11.290Z,100779.06
2023-02-14T09:39:39.973Z,100772.09
2023-02-14T09:42:32.079Z,100771.81
2023-02-14T09:45:22.247Z,100782.72
2023-02-14T09:48:28.805Z,100792.19
2023-02-14T09:51:01.293Z,100780.28
2023-02-14T09:53:36.875Z,100780.63
2023-02-14T09:56:50.737Z,100777.34
2023-02-14T09:59:31.593Z,100786.09
2023-02-14T10:02:00.359Z,100796.94
2023-02-14T10:05:03.483Z,100780.22
2023-02-14T10:07:48.100Z,100792.81
2023-02-14T10:10:26.034Z,100784.09
2023-02-14T10:12:58.772Z,100777.28
2023-02-14T10:15:56.966Z,100781.00
2023-02-14T10:18:42.959Z,100786.72
2023-02-14T10:21:19.842Z,100778.16
2023-02-14T10:23:54.354Z,100788.72
2023-02-14T10:26:40.548Z,100780.75
2023-02-14T10:29:18.034Z,100786.19
2023-02-14T10:32:10.380Z,100794.81
2023-02-14T10:34:50.172Z,100788.19
2023-02-14T10:37:51.137Z,100787.56
2023-02-14T10:40:41.464Z,100796.47
2023-02-14T10:43:50.276Z,100792.19
2023-02-14T10:46:37.602Z,100777.50
2023-02-14T10:49:40.961Z,100781.84
2023-02-14T10:52:28.562Z,100787.66
2023-02-14T10:55:01.801Z,100786.41
2023-02-14T10:57:33.285Z,100776.28
2023-02-14T11:00:11.146Z,100773.41
2023-02-14T11:02:44.659Z,100752.94
2023-02-14T11:05:50.150Z,100780.22
2023-02-14T11:08:38.041Z,100775.00
2023-02-14T11:11:30.722Z,100767.50
2023-02-14T11:14:01.008Z,100790.66
2023-02-14T11:16:33.246Z,100776.34
2023-02-14T11:19:41.631Z,100772.09
2023-02-14T11:22:10.463Z,100791.41
2023-02-14T11:24:42.526Z,100777.88
2023-02-14T11:27:12.353Z,100788.47
2023-02-14T11:29:49.264Z,100777.72
2023-02-14T11:32:23.100Z,100769.31
2023-02-14T11:35:05.173Z,100775.72
2023-02-14T11:37:52.346Z,100791.28
2023-02-14T11:40:35.082Z,100790.31
2023-02-14T11:43:14.252Z,100788.47
2023-02-14T11:45:44.295Z,100783.06
2023-02-14T11:48:31.427Z,100791.38
2023-02-14T11:51:09.427Z,100771.53
2023-02-14T11:53:49.835Z,100790.66
2023-02-14T11:56:19.000Z,100777.69
2023-02-14T11:58:56.077Z,100780.22
2023-02-14T12:01:31.577Z,100779.94
2023-02-14T12:04:14.000Z,100772.34
2023-02-14T12:06:44.647Z,100773.59
2023-02-14T12:09:28.092Z,100771.31
2023-02-14T12:12:04.840Z,100766.41
2023-02-14T12:14:36.484Z,100771.97
2023-02-14T12:17:22.726Z,100766.88
2023-02-14T12:20:15.151Z,100768.53
2023-02-14T12:22:50.654Z,100770.50
2023-02-14T12:25:27.298Z,100768.13
2023-02-14T12:28:13.563Z,100771.13
2023-02-14T12:30:41.576Z,100772.28
2023-02-14T12:33:23.237Z,100771.72
2023-02-14T12:36:14.338Z,100773.53
2023-02-14T12:38:58.005Z,100776.53
2023-02-14T12:42:10.631Z,100780.72
2023-02-14T12:44:57.009Z,100774.75
2023-02-14T12:47:40.005Z,100774.91
2023-02-14T12:50:32.000Z,100771.75
2023-02-14T12:53:35.637Z,100767.44
2023-02-14T12:56:42.966Z,100775.44
2023-02-14T12:59:26.919Z,100775.38
2023-02-14T13:02:29.038Z,100796.13
2023-02-14T13:05:13.581Z,100790.38
2023-02-14T13:07:50.451Z,100790.03
2023-02-14T13:10:27.620Z,100783.28
2023-02-14T13:13:14.868Z,100791.38
2023-02-14T13:15:55.142Z,100808.25
2023-02-14T13:18:35.516Z,100810.44
2023-02-14T13:21:12.682Z,100788.84
2023-02-14T13:23:45.687Z,100805.53
2023-02-14T13:26:19.065Z,100803.81
2023-02-14T13:28:54.449Z,100805.81
2023-02-14T13:31:23.816Z,100797.28
2023-02-14T13:33:57.804Z,100798.72
2023-02-14T13:36:25.565Z,100808.81
2023-02-14T13:38:58.685Z,100803.41
2023-02-14T13:41:26.782Z,100806.41
2023-02-14T13:43:56.576Z,100801.72
2023-02-14T13:46:33.709Z,100801.56
2023-02-14T13:49:14.256Z,100800.69
2023-02-14T13:51:59.225Z,100810.66
2023-02-14T13:54:33.444Z,100806.69
2023-02-14T13:57:03.091Z,100801.56
2023-02-14T13:59:35.504Z,100802.44
2023-02-14T14:02:30.100Z,100814.34
2023-02-14T14:04:58.114Z,100808.53
2023-02-14T14:07:31.199Z,100802.69
2023-02-14T14:10:00.425Z,100811.66
2023-02-14T14:12:42.914Z,100822.47
2023-02-14T14:15:13.430Z,100823.00
2023-02-14T14:17:44.683Z,100822.56
2023-02-14T14:20:21.512Z,100825.44
2023-02-14T14:22:51.036Z,100811.50
2023-02-14T14:25:44.044Z,100827.09
2023-02-14T14:28:19.172Z,100821.59
2023-02-14T14:30:47.016Z,100828.41
2023-02-14T14:33:38.330Z,100839.06
2023-02-14T14:36:22.979Z,100840.63
2023-02-14T14:38:54.436Z,100825.59
2023-02-14T14:41:29.440Z,100830.81
2023-02-14T14:44:03.207Z,100825.97
2023-02-14T14:46:31.030Z,100829.09
2023-02-14T14:48:58.733Z,100821.97
2023-02-14T14:51:34.020Z,100823.09
2023-02-14T14:54:14.193Z,100829.22
2023-02-14T14:56:57.413Z,100833.19
2023-02-14T14:59:35.414Z,100830.75
2023-02-14T15:02:04.017Z,100830.50
2023-02-14T15:04:33.353Z,100835.72
2023-02-14T15:07:30.806Z,100834.84
2023-02-14T15:10:01.779Z,100831.88
2023-02-14T15:12:48.588Z,100842.25
2023-02-14T15:15:40.252Z,100850.09
2023-02-14T15:18:11.880Z,100850.34
2023-02-14T15:20:41.727Z,100858.06
2023-02-14T15:23:20.233Z,100853.91
2023-02-14T15:25:49.303Z,100862.84
2023-02-14T15:28:34.433Z,100870.25
2023-02-14T15:31:04.236Z,100873.50
2023-02-14T15:33:32.535Z,100880.13
2023-02-14T15:36:05.432Z,100870.34
2023-02-14T15:38:34.089Z,100859.16
2023-02-14T15:41:02.686Z,100863.81
2023-02-14T15:43:33.206Z,100866.72
2023-02-14T15:46:24.871Z,100871.78
2023-02-14T15:48:53.427Z,100867.78
2023-02-14T15:51:30.980Z,100879.72
2023-02-14T15:54:05.660Z,100888.31
2023-02-14T15:56:39.183Z,100889.97
2023-02-14T15:59:27.042Z,100887.47
2023-02-14T16:02:15.512Z,100895.50
2023-02-14T16:04:43.251Z,100899.69
2023-02-14T16:07:26.185Z,100894.03
2023-02-14T16:10:18.829Z,100897.28
2023-02-14T16:13:05.419Z,100910.09
2023-02-14T16:15:37.952Z,100911.47
2023-02-14T16:18:18.038Z,100910.28
2023-02-14T16:20:48.994Z,100920.16
2023-02-14T16:23:27.839Z,100915.94
2023-02-14T16:25:57.694Z,100924.94
2023-02-14T16:28:30.591Z,100915.59
2023-02-14T16:30:59.580Z,100930.13
2023-02-14T16:33:29.638Z,100934.94
2023-02-14T16:36:01.951Z,100934.06
2023-02-14T16:38:29.834Z,100930.69
2023-02-14T16:40:58.031Z,100938.41
2023-02-14T16:43:27.329Z,100935.78
2023-02-14T16:45:55.131Z,100929.66
2023-02-14T16:48:22.831Z,100943.81
2023-02-14T16:50:50.662Z,100945.66
2023-02-14T16:53:27.882Z,100941.47
2023-02-14T16:55:56.713Z,100947.66
2023-02-14T16:58:29.203Z,100942.94
2023-02-14T17:00:58.864Z,100934.75
2023-02-14T17:03:27.017Z,100942.56
2023-02-14T17:05:56.194Z,100948.72
2023-02-14T17:08:23.975Z,100940.91
2023-02-14T17:10:52.329Z,100942.72
2023-02-14T17:13:21.796Z,100952.28
2023-02-14T17:15:49.973Z,100947.13
2023-02-14T17:18:18.581Z,100948.38
2023-02-14T17:20:46.918Z,100961.38
2023-02-14T17:23:15.603Z,100961.00
2023-02-14T17:25:47.851Z,100951.94
2023-02-14T17:28:15.490Z,100960.00
2023-02-14T17:30:43.206Z,100962.72
2023-02-14T17:33:11.365Z,100969.97
2023-02-14T17:35:39.068Z,100971.25
2023-02-14T17:38:06.984Z,100994.28
2023-02-14T17:40:35.253Z,100991.22
2023-02-14T17:43:02.994Z,100984.22
2023-02-14T17:45:31.063Z,100988.75
2023-02-14T17:47:58.849Z,100987.97
2023-02-14T17:50:26.904Z,100994.66
2023-02-14T17:52:55.468Z,100976.06
2023-02-14T17:55:23.804Z,100968.56
2023-02-14T17:57:52.821Z,100968.00
2023-02-14T18:00:23.216Z,100968.19
2023-02-14T18:02:51.202Z,100975.47
2023-02-14T18:05:21.776Z,100974.06
2023-02-14T18:07:51.580Z,100972.25
2023-02-14T18:10:21.822Z,100973.34
2023-02-14T18:12:50.071Z,100977.44
2023-02-14T18:15:18.162Z,100975.97
2023-02-14T18:17:49.860Z,100976.72
2023-02-14T18:20:18.451Z,100974.38
2023-02-14T18:22:46.257Z,100976.34
2023-02-14T18:25:14.577Z,100982.09
2023-02-14T18:27:42.874Z,100984.03
2023-02-14T18:30:11.327Z,100982.69
2023-02-14T18:32:39.271Z,100990.19
2023-02-14T18:35:09.059Z,100992.22
2023-02-14T18:37:37.342Z,100987.31
2023-02-14T18:40:11.120Z,100993.03
2023-02-14T18:42:38.994Z,101002.63
2023-02-14T18:45:07.865Z,101001.44
2023-02-14T18:47:36.183Z,101008.25
2023-02-14T18:50:04.640Z,101016.50
2023-02-14T18:52:35.015Z,101020.34
2023-02-14T18:55:04.841Z,101024.06
2023-02-14T18:57:36.336Z,101019.75
2023-02-14T19:00:07.049Z,101025.28
2023-02-14T19:02:35.968Z,101021.72
2023-02-14T19:05:04.586Z,101031.59
2023-02-14T19:07:32.823Z,101022.44
2023-02-14T19:10:01.382Z,101036.59
2023-02-14T19:12:34.348Z,101032.34
2023-02-14T19:15:02.437Z,101038.34
2023-02-14T19:17:34.184Z,101040.63
2023-02-14T19:20:01.928Z,101046.00
2023-02-14T19:22:29.838Z,101049.00
2023-02-14T19:24:57.874Z,101040.78
2023-02-14T19:27:25.886Z,101039.19
2023-02-14T19:29:53.831Z,101038.09
2023-02-14T19:32:21.567Z,101038.88
2023-02-14T19:34:49.427Z,101047.09
2023-02-14T19:37:18.491Z,101047.03
2023-02-14T19:39:47.744Z,101050.75
2023-02-14T19:42:15.568Z,101047.66
2023-02-14T19:44:46.416Z,101051.84
2023-02-14T19:47:28.768Z,101041.38
2023-02-14T19:50:02.936Z,101048.78
2023-02-14T19:52:31.228Z,101053.22
2023-02-14T19:55:00.877Z,101064.72
2023-02-14T19:57:28.948Z,101059.94
2023-02-14T19:59:58.031Z,101061.38
2023-02-14T20:02:25.916Z,101049.66
2023-02-14T20:04:59.031Z,101057.72
2023-02-14T20:07:27.329Z,101058.84
2023-02-14T20:09:55.162Z,101064.47
2023-02-14T20:12:23.196Z,101067.16
2023-02-14T20:14:54.269Z,101072.75
2023-02-14T20:17:22.243Z,101075.09
2023-02-14T20:19:50.858Z,101067.47
2023-02-14T20:22:20.509Z,101062.28
2023-02-14T20:24:48.389Z,101067.16
2023-02-14T20:27:16.349Z,101089.81
2023-02-14T20:29:45.106Z,101071.44
2023-02-14T20:32:15.041Z,101065.56
2023-02-14T20:34:43.210Z,101084.41
2023-02-14T20:37:11.258Z,101080.06
2023-02-14T20:39:39.253Z,101076.19
2023-02-14T20:42:08.777Z,101092.66
2023-02-14T20:44:37.855Z,101099.94
2023-02-14T20:47:06.914Z,101103.75
2023-02-14T20:49:36.049Z,101094.59
2023-02-14T20:52:04.158Z,101104.94
2023-02-14T20:54:32.553Z,101103.94
2023-02-14T20:57:00.199Z,101111.75
2023-02-14T20:59:29.153Z,101119.13
2023-02-14T21:01:57.893Z,101110.66
2023-02-14T21:04:25.805Z,101115.72
2023-02-14T21:06:53.631Z,101112.56
2023-02-14T21:09:21.431Z,101121.88
2023-02-14T21:11:50.415Z,101117.28
2023-02-14T21:14:18.095Z,101114.19
2023-02-14T21:16:46.591Z,101125.94
2023-02-14T21:19:14.332Z,101115.16
2023-02-14T21:21:42.501Z,101117.00
2023-02-14T21:24:12.018Z,101126.22
2023-02-14T21:26:39.780Z,101123.31
2023-02-14T21:29:08.365Z,101130.97
2023-02-14T21:31:36.259Z,101123.63
2023-02-14T21:34:04.944Z,101138.34
2023-02-14T21:36:35.737Z,101145.06
2023-02-14T21:39:04.835Z,101158.75
2023-02-14T21:41:33.100Z,101148.47
2023-02-14T21:44:01.351Z,101154.09
2023-02-14T21:46:31.345Z,101155.81
2023-02-14T21:49:19.801Z,101151.19
2023-02-14T21:51:47.952Z,101152.63
2023-02-14T21:54:16.462Z,101157.19
2023-02-14T21:56:44.459Z,101158.03
2023-02-14T21:59:15.060Z,101157.31
2023-02-14T22:01:42.954Z,101159.47
2023-02-14T22:04:11.600Z,101173.66
2023-02-14T22:06:40.417Z,101178.56
2023-02-14T22:09:12.491Z,101170.47
2023-02-14T22:11:41.686Z,101178.34
2023-02-14T22:14:09.430Z,101168.28
2023-02-14T22:16:38.306Z,101184.66
2023-02-14T22:19:06.631Z,101181.00
2023-02-14T22:21:34.714Z,101194.94
2023-02-14T22:24:02.752Z,101191.03
2023-02-14T22:26:34.837Z,101198.56
2023-02-14T22:29:02.713Z,101192.53
2023-02-14T22:31:33.971Z,101201.84
2023-02-14T22:34:01.996Z,101203.84
2023-02-14T22:36:30.031Z,101201.06
2023-02-14T22:38:57.815Z,101207.44
2023-02-14T22:41:25.689Z,101216.16
2023-02-14T22:43:54.142Z,101226.41
2023-02-14T22:46:27.079Z,101223.06
2023-02-14T22:48:55.242Z,101216.50
2023-02-14T22:51:27.690Z,101239.53
2023-02-14T22:53:57.085Z,101243.56
2023-02-14T22:56:28.629Z,101240.00
2023-02-14T22:58:57.353Z,101241.53
2023-02-14T23:01:25.378Z,101252.28
2023-02-14T23:03:58.124Z,101244.22
2023-02-14T23:06:27.657Z,101249.81
2023-02-14T23:08:55.883Z,101259.13
2023-02-14T23:11:28.058Z,101255.13
2023-02-14T23:14:14.647Z,101253.00
2023-02-14T23:17:01.034Z,101260.84
2023-02-14T23:19:49.013Z,101272.13
2023-02-14T23:22:36.661Z,101264.56
2023-02-14T23:25:07.312Z,101272.91
2023-02-14T23:27:43.377Z,101262.59
2023-02-14T23:30:13.904Z,101278.50
2023-02-14T23:32:41.851Z,101269.00
2023-02-14T23:35:09.631Z,101274.97
2023-02-14T23:37:37.766Z,101278.06
2023-02-14T23:40:07.263Z,101283.00
2023-02-14T23:42:35.006Z,101296.78
2023-02-14T23:45:23.814Z,101277.13
2023-02-14T23:47:51.661Z,101280.59
2023-02-14T23:50:20.722Z,101283.78
2023-02-14T23:52:48.924Z,101282.63
2023-02-14T23:55:19.412Z,101283.22
2023-02-14T23:57:47.702Z,101281.28
